createdAt,value
2024-01-10T00:00:37.257Z,9.10
2024-01-10T00:01:37.261Z,9.20
2024-01-10T00:02:37.224Z,9.30
2024-01-10T00:03:37.272Z,8.90
2024-01-10T00:04:37.226Z,9.70
2024-01-10T00:05:37.194Z,9.20
2024-01-10T00:06:37.324Z,8.70
2024-01-10T00:07:37.248Z,9.70
2024-01-10T00:08:37.152Z,9.70
2024-01-10T00:09:37.175Z,9.10
2024-01-10T00:10:37.149Z,8.60
2024-01-10T00:11:37.130Z,9.40
2024-01-10T00:12:37.198Z,9.30
2024-01-10T00:13:37.137Z,8.30
2024-01-10T00:14:37.103Z,8.60
2024-01-10T00:15:37.077Z,8.80
2024-01-10T00:16:37.183Z,9.00
2024-01-10T00:17:37.193Z,9.70
2024-01-10T00:18:37.157Z,8.90
2024-01-10T00:19:37.070Z,9.80
2024-01-10T00:20:37.383Z,9.90
2024-01-10T00:21:37.022Z,9.70
2024-01-10T00:22:37.048Z,9.30
2024-01-10T00:23:37.017Z,10.80
2024-01-10T00:24:37.002Z,10.40
2024-01-10T00:25:37.050Z,10.90
2024-01-10T00:26:36.965Z,10.60
2024-01-10T00:27:36.998Z,10.90
2024-01-10T00:28:36.964Z,11.20
2024-01-10T00:29:37.038Z,10.80
2024-01-10T00:30:36.970Z,11.00
2024-01-10T00:31:36.968Z,10.70
2024-01-10T00:32:37.057Z,11.30
2024-01-10T00:33:36.949Z,10.60
2024-01-10T00:34:37.187Z,10.80
2024-01-10T00:35:36.870Z,11.20
2024-01-10T00:36:36.866Z,10.40
2024-01-10T00:37:36.888Z,10.40
2024-01-10T00:38:36.830Z,9.60
2024-01-10T00:39:36.841Z,10.60
2024-01-10T00:40:36.848Z,9.80
2024-01-10T00:41:36.803Z,9.70
2024-01-10T00:42:36.822Z,10.20
2024-01-10T00:43:36.816Z,9.80
2024-01-10T00:44:36.792Z,9.40
2024-01-10T00:45:36.806Z,10.10
2024-01-10T00:46:36.797Z,10.40
2024-01-10T00:47:36.765Z,10.10
2024-01-10T00:48:36.824Z,9.80
2024-01-10T00:49:36.790Z,9.80
2024-01-10T00:50:36.709Z,10.00
2024-01-10T00:51:36.694Z,10.20
2024-01-10T00:52:36.715Z,10.10
2024-01-10T00:53:36.707Z,10.30
2024-01-10T00:54:36.663Z,9.80
2024-01-10T00:55:36.681Z,10.30
2024-01-10T00:56:36.643Z,9.60
2024-01-10T00:57:36.628Z,10.30
2024-01-10T00:58:36.681Z,10.10
2024-01-10T00:59:36.607Z,10.20
2024-01-10T01:00:36.638Z,10.70
2024-01-10T01:01:36.635Z,10.60
2024-01-10T01:02:36.590Z,9.20
2024-01-10T01:03:36.651Z,10.20
2024-01-10T01:04:36.650Z,10.50
2024-01-10T01:05:36.699Z,9.70
2024-01-10T01:06:36.536Z,10.60
2024-01-10T01:07:36.562Z,10.60
2024-01-10T01:08:36.569Z,10.20
2024-01-10T01:09:36.509Z,10.50
2024-01-10T01:10:38.325Z,10.30
2024-01-10T01:11:36.504Z,10.30
2024-01-10T01:12:36.506Z,11.10
2024-01-10T01:13:36.518Z,10.80
2024-01-10T01:14:36.470Z,11.00
2024-01-10T01:15:36.445Z,10.30
2024-01-10T01:16:36.464Z,11.10
2024-01-10T01:17:36.473Z,10.40
2024-01-10T01:18:36.468Z,10.60
2024-01-10T01:19:36.502Z,10.40
2024-01-10T01:20:36.439Z,9.80
2024-01-10T01:21:36.404Z,11.20
2024-01-10T01:22:36.425Z,10.60
2024-01-10T01:23:41.816Z,9.90
2024-01-10T01:24:37.379Z,10.50
2024-01-10T01:25:36.395Z,10.50
2024-01-10T01:26:36.333Z,10.40
2024-01-10T01:27:36.314Z,10.30
2024-01-10T01:28:36.534Z,11.50
2024-01-10T01:29:36.364Z,10.90
2024-01-10T01:30:36.319Z,11.20
2024-01-10T01:31:36.333Z,11.40
2024-01-10T01:32:36.300Z,10.20
2024-01-10T01:33:36.321Z,11.20
2024-01-10T01:34:36.308Z,11.60
2024-01-10T01:35:36.249Z,11.20
2024-01-10T01:36:36.245Z,11.40
2024-01-10T01:37:36.251Z,11.60
2024-01-10T01:38:36.204Z,11.40
2024-01-10T01:39:36.200Z,11.80
2024-01-10T01:40:36.259Z,10.50
2024-01-10T01:41:36.169Z,11.40
2024-01-10T01:42:36.182Z,11.40
2024-01-10T01:43:36.254Z,10.90
2024-01-10T01:44:36.157Z,12.00
2024-01-10T01:45:36.141Z,11.60
2024-01-10T01:46:36.145Z,11.90
2024-01-10T01:47:36.126Z,11.60
2024-01-10T01:48:36.163Z,11.80
2024-01-10T01:49:36.246Z,10.90
2024-01-10T01:50:36.125Z,11.00
2024-01-10T01:51:36.099Z,11.40
2024-01-10T01:52:36.252Z,10.70
2024-01-10T01:53:36.044Z,12.10
2024-01-10T01:54:36.055Z,11.60
2024-01-10T01:55:36.040Z,12.10
2024-01-10T01:56:36.035Z,11.70
2024-01-10T01:57:36.012Z,11.50
2024-01-10T01:58:36.037Z,11.90
2024-01-10T01:59:35.997Z,11.30
2024-01-10T02:00:36.028Z,12.10
2024-01-10T02:01:35.977Z,11.40
2024-01-10T02:02:36.068Z,11.70
2024-01-10T02:03:36.138Z,12.00
2024-01-10T02:04:35.989Z,11.50
2024-01-10T02:05:36.022Z,11.60
2024-01-10T02:06:35.923Z,11.90
2024-01-10T02:07:35.976Z,12.60
2024-01-10T02:08:35.903Z,11.30
2024-01-10T02:09:35.872Z,11.30
2024-01-10T02:10:36.034Z,11.20
2024-01-10T02:11:35.853Z,11.10
2024-01-10T02:12:35.879Z,12.40
2024-01-10T02:13:35.896Z,12.00
2024-01-10T02:14:35.830Z,11.80
2024-01-10T02:15:35.815Z,11.60
2024-01-10T02:16:35.899Z,12.20
2024-01-10T02:17:35.816Z,12.00
2024-01-10T02:18:35.902Z,12.10
2024-01-10T02:19:35.798Z,12.10
2024-01-10T02:20:35.756Z,11.80
2024-01-10T02:21:35.746Z,12.00
2024-01-10T02:22:35.917Z,12.30
2024-01-10T02:23:35.730Z,12.60
2024-01-10T02:24:35.721Z,11.40
2024-01-10T02:25:35.785Z,13.30
2024-01-10T02:26:35.693Z,12.00
2024-01-10T02:27:35.701Z,12.20
2024-01-10T02:28:35.694Z,12.30
2024-01-10T02:29:35.674Z,13.00
2024-01-10T02:30:35.707Z,12.60
2024-01-10T02:31:35.742Z,12.70
2024-01-10T02:32:35.709Z,12.80
2024-01-10T02:33:35.706Z,13.30
2024-01-10T02:34:35.720Z,12.10
2024-01-10T02:35:35.617Z,13.70
2024-01-10T02:36:35.633Z,12.50
2024-01-10T02:37:35.627Z,14.20
2024-01-10T02:38:35.674Z,13.00
2024-01-10T02:39:35.593Z,12.10
2024-01-10T02:40:35.678Z,13.00
2024-01-10T02:41:35.551Z,13.10
2024-01-10T02:42:35.534Z,12.80
2024-01-10T02:43:35.582Z,13.00
2024-01-10T02:44:35.523Z,13.60
2024-01-10T02:45:35.505Z,13.20
2024-01-10T02:46:35.546Z,13.10
2024-01-10T02:47:35.576Z,12.60
2024-01-10T02:48:35.521Z,13.60
2024-01-10T02:49:35.582Z,13.80
2024-01-10T02:50:35.492Z,13.60
2024-01-10T02:51:35.429Z,14.00
2024-01-10T02:52:35.480Z,13.40
2024-01-10T02:53:35.445Z,12.90
2024-01-10T02:54:35.418Z,13.20
2024-01-10T02:55:35.432Z,12.90
2024-01-10T02:56:35.401Z,13.30
2024-01-10T02:57:35.378Z,14.20
2024-01-10T02:58:35.384Z,14.40
2024-01-10T02:59:35.358Z,14.70
2024-01-10T03:00:35.409Z,13.50
2024-01-10T03:01:35.392Z,13.00
2024-01-10T03:02:35.383Z,13.30
2024-01-10T03:03:35.339Z,13.90
2024-01-10T03:04:35.345Z,13.40
2024-01-10T03:05:35.327Z,15.00
2024-01-10T03:06:35.283Z,14.40
2024-01-10T03:07:35.282Z,15.10
2024-01-10T03:08:35.257Z,14.40
2024-01-10T03:09:35.318Z,14.20
2024-01-10T03:10:35.342Z,14.20
2024-01-10T03:11:35.231Z,14.60
2024-01-10T03:12:35.216Z,13.80
2024-01-10T03:13:35.310Z,14.30
2024-01-10T03:14:35.201Z,14.20
2024-01-10T03:15:35.192Z,15.30
2024-01-10T03:16:35.287Z,14.60
2024-01-10T03:17:35.209Z,15.30
2024-01-10T03:18:35.263Z,14.20
2024-01-10T03:19:35.204Z,15.60
2024-01-10T03:20:35.129Z,15.50
2024-01-10T03:21:35.115Z,15.60
2024-01-10T03:22:35.148Z,15.40
2024-01-10T03:23:35.110Z,16.20
2024-01-10T03:24:35.095Z,16.30
2024-01-10T03:25:35.100Z,15.80
2024-01-10T03:26:35.269Z,15.50
2024-01-10T03:27:35.068Z,15.80
2024-01-10T03:28:35.077Z,14.00
2024-01-10T03:29:35.040Z,15.70
2024-01-10T03:30:35.115Z,14.70
2024-01-10T03:31:35.057Z,15.20
2024-01-10T03:32:35.191Z,15.10
2024-01-10T03:33:35.120Z,16.20
2024-01-10T03:34:35.059Z,16.20
2024-01-10T03:35:34.973Z,16.30
2024-01-10T03:36:34.960Z,16.80
2024-01-10T03:37:35.035Z,16.70
2024-01-10T03:38:34.938Z,16.40
2024-01-10T03:39:34.930Z,16.50
2024-01-10T03:40:35.058Z,16.30
2024-01-10T03:41:34.917Z,16.00
2024-01-10T03:42:34.913Z,16.20
2024-01-10T03:43:34.885Z,16.30
2024-01-10T03:44:34.882Z,15.70
2024-01-10T03:45:34.882Z,16.30
2024-01-10T03:46:34.864Z,16.10
2024-01-10T03:47:34.886Z,15.90
2024-01-10T03:48:34.873Z,16.10
2024-01-10T03:49:34.821Z,16.80
2024-01-10T03:50:34.825Z,16.70
2024-01-10T03:51:34.814Z,16.30
2024-01-10T03:52:34.811Z,16.10
2024-01-10T03:53:34.777Z,14.90
2024-01-10T03:54:34.764Z,16.40
2024-01-10T03:55:34.753Z,15.80
2024-01-10T03:56:35.497Z,16.00
2024-01-10T03:57:34.734Z,16.10
2024-01-10T03:58:34.727Z,16.60
2024-01-10T03:59:34.713Z,16.00
2024-01-10T04:00:34.706Z,16.30
2024-01-10T04:01:35.109Z,15.30
2024-01-10T04:02:34.785Z,16.10
2024-01-10T04:03:34.741Z,15.40
2024-01-10T04:04:34.689Z,16.00
2024-01-10T04:05:34.890Z,16.10
2024-01-10T04:06:34.668Z,16.80
2024-01-10T04:07:34.638Z,16.40
2024-01-10T04:08:34.643Z,16.30
2024-01-10T04:09:34.626Z,16.70
2024-01-10T04:10:34.607Z,16.80
2024-01-10T04:11:34.583Z,16.00
2024-01-10T04:12:34.578Z,16.30
2024-01-10T04:13:34.578Z,16.90
2024-01-10T04:14:34.559Z,16.00
2024-01-10T04:15:34.560Z,17.30
2024-01-10T04:16:34.552Z,17.30
2024-01-10T04:17:34.717Z,18.50
2024-01-10T04:18:34.631Z,17.20
2024-01-10T04:19:34.520Z,17.70
2024-01-10T04:20:34.715Z,17.80
2024-01-10T04:21:34.504Z,16.90
2024-01-10T04:22:34.487Z,17.60
2024-01-10T04:23:34.475Z,18.50
2024-01-10T04:24:34.474Z,17.60
2024-01-10T04:25:34.444Z,17.40
2024-01-10T04:26:34.431Z,17.30
2024-01-10T04:27:34.425Z,18.50
2024-01-10T04:28:34.411Z,17.60
2024-01-10T04:29:34.489Z,17.60
2024-01-10T04:30:34.448Z,16.80
2024-01-10T04:31:34.381Z,16.90
2024-01-10T04:32:34.537Z,17.20
2024-01-10T04:33:34.484Z,16.50
2024-01-10T04:34:34.352Z,18.00
2024-01-10T04:35:34.395Z,18.20
2024-01-10T04:36:34.368Z,17.80
2024-01-10T04:37:34.330Z,16.60
2024-01-10T04:38:34.366Z,17.40
2024-01-10T04:39:34.296Z,17.60
2024-01-10T04:40:34.293Z,18.40
2024-01-10T04:41:34.284Z,18.30
2024-01-10T04:42:34.271Z,18.90
2024-01-10T04:43:34.281Z,18.30
2024-01-10T04:44:34.263Z,18.70
2024-01-10T04:45:34.244Z,17.40
2024-01-10T04:46:34.228Z,17.60
2024-01-10T04:47:34.275Z,18.60
2024-01-10T04:48:34.283Z,17.60
2024-01-10T04:49:34.193Z,18.30
2024-01-10T04:50:34.233Z,17.90
2024-01-10T04:51:34.177Z,17.50
2024-01-10T04:52:34.635Z,17.00
2024-01-10T04:53:34.159Z,18.80
2024-01-10T04:54:34.152Z,18.20
2024-01-10T04:55:34.132Z,17.60
2024-01-10T04:56:34.221Z,18.50
2024-01-10T04:57:34.148Z,18.90
2024-01-10T04:58:34.108Z,19.50
2024-01-10T04:59:34.093Z,19.00
2024-01-10T05:00:34.117Z,18.00
2024-01-10T05:01:34.086Z,19.30
2024-01-10T05:02:34.135Z,18.30
2024-01-10T05:03:34.140Z,17.20
2024-01-10T05:04:34.047Z,19.20
2024-01-10T05:05:34.168Z,18.50
2024-01-10T05:06:34.044Z,18.70
2024-01-10T05:07:34.012Z,18.20
2024-01-10T05:08:34.028Z,18.40
2024-01-10T05:09:34.036Z,19.60
2024-01-10T05:10:33.981Z,18.00
2024-01-10T05:11:33.980Z,19.50
2024-01-10T05:12:33.985Z,18.20
2024-01-10T05:13:33.941Z,17.80
2024-01-10T05:14:33.928Z,18.40
2024-01-10T05:15:33.984Z,18.90
2024-01-10T05:16:33.930Z,21.30
2024-01-10T05:17:33.974Z,19.50
2024-01-10T05:18:33.915Z,19.50
2024-01-10T05:19:33.895Z,24.40
2024-01-10T05:20:34.040Z,21.30
2024-01-10T05:21:33.865Z,19.70
2024-01-10T05:22:33.873Z,22.00
2024-01-10T05:23:33.843Z,18.80
2024-01-10T05:24:33.850Z,19.20
2024-01-10T05:25:33.824Z,19.00
2024-01-10T05:26:33.812Z,18.80
2024-01-10T05:27:33.799Z,18.20
2024-01-10T05:28:33.790Z,19.00
2024-01-10T05:29:33.769Z,18.50
2024-01-10T05:30:33.865Z,20.00
2024-01-10T05:31:33.749Z,19.70
2024-01-10T05:32:33.809Z,19.90
2024-01-10T05:33:33.781Z,19.10
2024-01-10T05:34:33.748Z,19.10
2024-01-10T05:35:33.729Z,19.20
2024-01-10T05:36:33.700Z,21.20
2024-01-10T05:37:33.697Z,19.70
2024-01-10T05:38:33.679Z,19.50
2024-01-10T05:39:34.597Z,19.20
2024-01-10T05:40:33.679Z,21.20
2024-01-10T05:41:33.647Z,19.50
2024-01-10T05:42:33.663Z,20.00
2024-01-10T05:43:33.629Z,20.20
2024-01-10T05:44:33.633Z,20.10
2024-01-10T05:45:33.603Z,18.80
2024-01-10T05:46:33.595Z,19.50
2024-01-10T05:47:33.739Z,18.90
2024-01-10T05:48:33.874Z,19.00
2024-01-10T05:49:33.599Z,19.60
2024-01-10T05:50:33.564Z,19.80
2024-01-10T05:51:33.576Z,19.50
2024-01-10T05:52:33.535Z,19.20
2024-01-10T05:53:33.575Z,19.00
2024-01-10T05:54:33.538Z,20.30
2024-01-10T05:55:33.504Z,20.50
2024-01-10T05:56:33.513Z,19.90
2024-01-10T05:57:33.474Z,20.20
2024-01-10T05:58:33.498Z,19.80
2024-01-10T05:59:33.509Z,19.50
2024-01-10T06:00:33.525Z,20.10
2024-01-10T06:01:33.444Z,20.60
2024-01-10T06:02:33.511Z,20.20
2024-01-10T06:03:33.464Z,19.60
2024-01-10T06:04:33.414Z,20.00
2024-01-10T06:05:33.529Z,20.90
2024-01-10T06:06:33.477Z,21.40
2024-01-10T06:07:33.621Z,20.00
2024-01-10T06:08:33.370Z,20.80
2024-01-10T06:09:33.352Z,20.40
2024-01-10T06:10:36.583Z,20.90
2024-01-10T06:11:33.345Z,20.70
2024-01-10T06:12:33.362Z,21.60
2024-01-10T06:13:41.995Z,20.10
2024-01-10T06:14:34.326Z,21.40
2024-01-10T06:15:33.308Z,19.10
2024-01-10T06:16:33.287Z,20.00
2024-01-10T06:17:33.398Z,21.30
2024-01-10T06:18:33.358Z,19.40
2024-01-10T06:19:33.248Z,20.40
2024-01-10T06:20:33.351Z,20.90
2024-01-10T06:21:33.323Z,20.30
2024-01-10T06:22:33.223Z,20.20
2024-01-10T06:23:33.205Z,20.60
2024-01-10T06:24:33.200Z,21.30
2024-01-10T06:25:33.185Z,21.30
2024-01-10T06:26:33.181Z,20.80
2024-01-10T06:27:33.184Z,21.00
2024-01-10T06:28:33.169Z,20.50
2024-01-10T06:29:33.140Z,21.00
2024-01-10T06:30:33.195Z,22.10
2024-01-10T06:31:33.140Z,20.30
2024-01-10T06:32:33.217Z,21.20
2024-01-10T06:33:33.144Z,20.00
2024-01-10T06:34:33.096Z,20.10
2024-01-10T06:35:33.145Z,20.50
2024-01-10T06:36:33.088Z,21.20
2024-01-10T06:37:34.545Z,20.60
2024-01-10T06:38:33.219Z,20.40
2024-01-10T06:39:33.045Z,20.80
2024-01-10T06:40:33.041Z,20.40
2024-01-10T06:41:33.111Z,20.40
2024-01-10T06:42:33.003Z,20.50
2024-01-10T06:43:32.998Z,21.90
2024-01-10T06:44:33.074Z,20.60
2024-01-10T06:45:33.007Z,21.20
2024-01-10T06:46:32.961Z,21.80
2024-01-10T06:47:33.062Z,19.90
2024-01-10T06:48:32.998Z,20.60
2024-01-10T06:49:33.052Z,21.90
2024-01-10T06:50:33.043Z,20.90
2024-01-10T06:51:32.920Z,20.50
2024-01-10T06:52:32.902Z,22.20
2024-01-10T06:53:32.922Z,21.80
2024-01-10T06:54:32.896Z,20.80
2024-01-10T06:55:32.919Z,20.80
2024-01-10T06:56:32.886Z,20.30
2024-01-10T06:57:32.845Z,21.60
2024-01-10T06:58:32.845Z,20.90
2024-01-10T06:59:32.888Z,20.90
2024-01-10T07:00:32.883Z,20.30
2024-01-10T07:01:32.817Z,20.80
2024-01-10T07:02:32.977Z,21.30
2024-01-10T07:03:32.858Z,20.90
2024-01-10T07:04:32.789Z,21.00
2024-01-10T07:05:32.969Z,20.50
2024-01-10T07:06:32.803Z,20.60
2024-01-10T07:07:32.751Z,21.10
2024-01-10T07:08:32.821Z,20.40
2024-01-10T07:09:32.743Z,20.20
2024-01-10T07:10:32.705Z,22.30
2024-01-10T07:11:32.758Z,21.80
2024-01-10T07:12:32.692Z,22.20
2024-01-10T07:13:32.704Z,22.50
2024-01-10T07:14:32.765Z,22.20
2024-01-10T07:15:32.660Z,22.00
2024-01-10T07:16:34.056Z,20.60
2024-01-10T07:17:32.913Z,22.00
2024-01-10T07:18:32.713Z,21.70
2024-01-10T07:19:32.621Z,21.40
2024-01-10T07:20:32.632Z,22.30
2024-01-10T07:21:32.643Z,22.00
2024-01-10T07:22:32.588Z,20.90
2024-01-10T07:23:32.949Z,22.10
2024-01-10T07:24:33.049Z,22.70
2024-01-10T07:25:32.590Z,23.00
2024-01-10T07:26:32.606Z,22.90
2024-01-10T07:27:32.598Z,22.60
2024-01-10T07:28:32.572Z,22.30
2024-01-10T07:29:32.557Z,21.50
2024-01-10T07:30:32.640Z,22.90
2024-01-10T07:31:32.657Z,22.70
2024-01-10T07:32:32.603Z,22.00
2024-01-10T07:33:32.658Z,23.20
2024-01-10T07:34:32.537Z,21.50
2024-01-10T07:35:32.526Z,22.90
2024-01-10T07:36:32.510Z,21.70
2024-01-10T07:37:32.454Z,22.60
2024-01-10T07:38:32.473Z,22.20
2024-01-10T07:39:32.412Z,23.70
2024-01-10T07:40:32.403Z,23.10
2024-01-10T07:41:32.481Z,22.30
2024-01-10T07:42:32.384Z,23.70
2024-01-10T07:43:32.393Z,23.10
2024-01-10T07:44:32.369Z,22.70
2024-01-10T07:45:32.349Z,23.10
2024-01-10T07:46:32.735Z,23.90
2024-01-10T07:47:32.371Z,24.60
2024-01-10T07:48:32.591Z,23.90
2024-01-10T07:49:32.307Z,24.20
2024-01-10T07:50:32.383Z,24.30
2024-01-10T07:51:32.313Z,23.90
2024-01-10T07:52:32.270Z,24.20
2024-01-10T07:53:32.318Z,23.90
2024-01-10T07:54:32.265Z,23.80
2024-01-10T07:55:32.263Z,24.50
2024-01-10T07:56:32.300Z,24.40
2024-01-10T07:57:32.238Z,23.10
2024-01-10T07:58:32.218Z,24.30
2024-01-10T07:59:32.247Z,23.40
2024-01-10T08:00:32.210Z,24.10
2024-01-10T08:01:32.319Z,24.10
2024-01-10T08:02:32.189Z,23.30
2024-01-10T08:03:32.197Z,23.50
2024-01-10T08:04:32.156Z,23.00
2024-01-10T08:05:32.261Z,23.40
2024-01-10T08:06:33.690Z,24.00
2024-01-10T08:07:32.116Z,24.40
2024-01-10T08:08:32.132Z,23.70
2024-01-10T08:09:32.093Z,22.10
2024-01-10T08:10:32.097Z,22.70
2024-01-10T08:11:32.081Z,22.40
2024-01-10T08:12:32.074Z,24.20
2024-01-10T08:13:32.055Z,24.60
2024-01-10T08:14:32.099Z,24.20
2024-01-10T08:15:32.054Z,24.50
2024-01-10T08:16:32.020Z,24.30
2024-01-10T08:17:32.162Z,24.10
2024-01-10T08:18:32.049Z,24.30
2024-01-10T08:19:32.054Z,24.40
2024-01-10T08:20:32.074Z,24.60
2024-01-10T08:21:31.989Z,25.00
2024-01-10T08:22:31.967Z,23.00
2024-01-10T08:23:31.964Z,24.00
2024-01-10T08:24:31.959Z,24.70
2024-01-10T08:25:31.971Z,24.60
2024-01-10T08:26:32.081Z,25.10
2024-01-10T08:27:31.945Z,24.00
2024-01-10T08:28:31.917Z,23.60
2024-01-10T08:29:31.917Z,25.00
2024-01-10T08:30:31.882Z,22.70
2024-01-10T08:31:31.865Z,24.00
2024-01-10T08:32:31.960Z,22.40
2024-01-10T08:33:32.161Z,24.20
2024-01-10T08:34:31.873Z,24.00
2024-01-10T08:35:31.887Z,24.40
2024-01-10T08:36:31.834Z,24.30
2024-01-10T08:37:31.806Z,24.40
2024-01-10T08:38:32.482Z,23.70
2024-01-10T08:39:31.820Z,23.30
2024-01-10T08:40:34.226Z,23.90
2024-01-10T08:41:31.779Z,22.80
2024-01-10T08:42:31.763Z,23.20
2024-01-10T08:43:31.748Z,24.50
2024-01-10T08:44:31.759Z,24.00
2024-01-10T08:45:31.717Z,25.90
2024-01-10T08:46:31.701Z,25.50
2024-01-10T08:47:31.763Z,25.60
2024-01-10T08:48:31.763Z,24.80
2024-01-10T08:49:31.706Z,25.70
2024-01-10T08:50:31.676Z,25.70
2024-01-10T08:51:31.663Z,25.90
2024-01-10T08:52:31.681Z,24.30
2024-01-10T08:53:31.713Z,25.60
2024-01-10T08:54:31.626Z,24.60
2024-01-10T08:55:31.617Z,25.30
2024-01-10T08:56:31.700Z,25.60
2024-01-10T08:57:31.638Z,25.30
2024-01-10T08:58:31.578Z,25.80
2024-01-10T08:59:31.686Z,26.00
2024-01-10T09:00:31.645Z,27.90
2024-01-10T09:01:31.553Z,26.80
2024-01-10T09:02:31.559Z,27.30
2024-01-10T09:03:31.550Z,26.50
2024-01-10T09:04:31.933Z,26.90
2024-01-10T09:05:31.644Z,27.20
2024-01-10T09:06:31.550Z,27.30
2024-01-10T09:07:31.490Z,28.00
2024-01-10T09:08:31.517Z,26.90
2024-01-10T09:09:31.461Z,27.40
2024-01-10T09:10:31.480Z,27.90
2024-01-10T09:11:32.302Z,26.60
2024-01-10T09:12:31.428Z,26.90
2024-01-10T09:13:31.462Z,27.80
2024-01-10T09:14:31.425Z,27.40
2024-01-10T09:15:31.408Z,26.60
2024-01-10T09:16:31.388Z,27.80
2024-01-10T09:17:31.495Z,27.50
2024-01-10T09:18:31.455Z,27.70
2024-01-10T09:19:31.375Z,27.60
2024-01-10T09:20:31.468Z,28.60
2024-01-10T09:21:31.339Z,27.80
2024-01-10T09:22:31.322Z,28.90
2024-01-10T09:23:31.356Z,26.50
2024-01-10T09:24:31.326Z,28.90
2024-01-10T09:25:31.319Z,26.60
2024-01-10T09:26:31.303Z,28.60
2024-01-10T09:27:31.271Z,29.50
2024-01-10T09:28:31.261Z,27.50
2024-01-10T09:29:31.304Z,29.00
2024-01-10T09:30:31.262Z,28.30
2024-01-10T09:31:31.226Z,27.80
2024-01-10T09:32:31.438Z,26.90
2024-01-10T09:33:31.280Z,26.70
2024-01-10T09:34:31.326Z,28.00
2024-01-10T09:35:31.273Z,26.70
2024-01-10T09:36:31.170Z,27.40
2024-01-10T09:37:31.185Z,26.00
2024-01-10T09:38:31.214Z,27.80
2024-01-10T09:39:31.159Z,27.20
2024-01-10T09:40:31.168Z,27.40
2024-01-10T09:41:31.660Z,26.60
2024-01-10T09:42:31.318Z,26.60
2024-01-10T09:43:31.108Z,25.70
2024-01-10T09:44:31.132Z,26.10
2024-01-10T09:45:31.074Z,27.90
2024-01-10T09:46:31.059Z,26.60
2024-01-10T09:47:31.425Z,27.60
2024-01-10T09:48:31.090Z,26.50
2024-01-10T09:49:31.107Z,27.30
2024-01-10T09:50:31.114Z,26.40
2024-01-10T09:51:31.010Z,26.00
2024-01-10T09:52:31.102Z,27.30
2024-01-10T09:53:31.070Z,27.00
2024-01-10T09:54:30.987Z,27.00
2024-01-10T09:55:30.986Z,27.20
2024-01-10T09:56:31.065Z,26.30
2024-01-10T09:57:31.078Z,26.30
2024-01-10T09:58:30.951Z,27.00
2024-01-10T09:59:30.996Z,27.00
2024-01-10T10:00:31.149Z,27.00
2024-01-10T10:01:30.986Z,27.10
2024-01-10T10:02:31.007Z,26.60
2024-01-10T10:03:30.917Z,26.60
2024-01-10T10:04:30.868Z,25.60
2024-01-10T10:05:30.943Z,25.80
2024-01-10T10:06:31.028Z,26.50
2024-01-10T10:07:30.915Z,26.90
2024-01-10T10:08:30.900Z,25.60
2024-01-10T10:09:30.828Z,25.30
2024-01-10T10:10:30.812Z,26.60
2024-01-10T10:11:30.861Z,26.00
2024-01-10T10:12:30.812Z,25.80
2024-01-10T10:13:30.789Z,26.70
2024-01-10T10:14:30.961Z,26.10
2024-01-10T10:15:30.788Z,25.50
2024-01-10T10:16:30.765Z,25.20
2024-01-10T10:17:30.892Z,26.10
2024-01-10T10:18:30.942Z,25.60
2024-01-10T10:19:38.216Z,25.70
2024-01-10T10:20:31.735Z,25.00
2024-01-10T10:21:30.724Z,25.90
2024-01-10T10:22:30.687Z,25.40
2024-01-10T10:23:30.722Z,25.30
2024-01-10T10:24:30.669Z,25.20
2024-01-10T10:25:30.761Z,24.90
2024-01-10T10:26:31.153Z,25.40
2024-01-10T10:27:30.635Z,25.40
2024-01-10T10:28:35.674Z,25.30
2024-01-10T10:29:31.627Z,26.20
2024-01-10T10:30:30.693Z,25.40
2024-01-10T10:31:30.588Z,25.90
2024-01-10T10:32:30.814Z,25.70
2024-01-10T10:33:30.640Z,25.20
2024-01-10T10:34:30.648Z,25.10
2024-01-10T10:35:37.880Z,25.20
2024-01-10T10:36:31.533Z,26.00
2024-01-10T10:37:30.568Z,26.10
2024-01-10T10:38:30.589Z,24.90
2024-01-10T10:39:30.593Z,25.60
2024-01-10T10:40:30.645Z,26.10
2024-01-10T10:41:30.542Z,24.70
2024-01-10T10:43:30.533Z,25.20
2024-01-10T10:44:30.878Z,25.60
2024-01-10T10:45:30.556Z,25.20
2024-01-10T10:46:30.591Z,26.20
2024-01-10T10:47:30.505Z,26.20
2024-01-10T10:48:30.552Z,27.00
2024-01-10T10:49:30.478Z,25.70
2024-01-10T10:50:30.434Z,26.90
2024-01-10T10:51:30.371Z,25.40
2024-01-10T10:52:30.357Z,26.00
2024-01-10T10:53:30.524Z,26.20
2024-01-10T10:54:30.348Z,25.70
2024-01-10T10:55:30.336Z,25.40
2024-01-10T10:56:30.374Z,26.00
2024-01-10T10:57:30.307Z,26.00
2024-01-10T10:58:30.324Z,25.20
2024-01-10T10:59:30.387Z,25.70
2024-01-10T11:00:30.325Z,26.00
2024-01-10T11:01:30.265Z,26.60
2024-01-10T11:02:31.968Z,26.90
2024-01-10T11:03:30.242Z,26.90
2024-01-10T11:04:30.314Z,26.70
2024-01-10T11:05:30.370Z,26.40
2024-01-10T11:06:30.270Z,26.50
2024-01-10T11:07:30.283Z,27.10
2024-01-10T11:08:30.313Z,25.90
2024-01-10T11:09:30.237Z,26.30
2024-01-10T11:10:30.185Z,27.40
2024-01-10T11:11:30.234Z,25.50
2024-01-10T11:12:30.158Z,26.00
2024-01-10T11:13:30.128Z,26.30
2024-01-10T11:14:30.144Z,24.70
2024-01-10T11:15:30.115Z,26.30
2024-01-10T11:16:30.260Z,26.20
2024-01-10T11:17:30.146Z,26.10
2024-01-10T11:18:30.106Z,25.30
2024-01-10T11:19:30.079Z,24.80
2024-01-10T11:20:30.081Z,24.90
2024-01-10T11:21:30.053Z,25.30
2024-01-10T11:22:30.033Z,26.00
2024-01-10T11:23:30.124Z,25.60
2024-01-10T11:24:30.017Z,26.30
2024-01-10T11:25:30.065Z,25.00
2024-01-10T11:26:30.213Z,23.90
2024-01-10T11:27:29.985Z,25.20
2024-01-10T11:28:29.982Z,25.00
2024-01-10T11:29:29.985Z,25.90
2024-01-10T11:30:29.983Z,25.20
2024-01-10T11:31:29.969Z,25.30
2024-01-10T11:32:30.004Z,25.30
2024-01-10T11:33:29.957Z,25.10
2024-01-10T11:34:29.962Z,25.10
2024-01-10T11:35:29.966Z,25.80
2024-01-10T11:36:29.898Z,24.50
2024-01-10T11:37:29.873Z,24.50
2024-01-10T11:38:29.894Z,25.40
2024-01-10T11:39:29.857Z,24.80
2024-01-10T11:40:29.858Z,25.00
2024-01-10T11:41:29.854Z,23.60
2024-01-10T11:42:29.821Z,24.80
2024-01-10T11:43:29.802Z,24.90
2024-01-10T11:44:30.069Z,24.30
2024-01-10T11:45:29.795Z,24.80
2024-01-10T11:46:29.768Z,25.20
2024-01-10T11:47:29.905Z,24.80
2024-01-10T11:48:29.937Z,24.00
2024-01-10T11:49:29.798Z,25.10
2024-01-10T11:50:29.744Z,26.20
2024-01-10T11:51:29.723Z,24.00
2024-01-10T11:52:29.708Z,25.10
2024-01-10T11:53:29.716Z,24.90
2024-01-10T11:54:29.703Z,23.50
2024-01-10T11:55:29.671Z,24.30
2024-01-10T11:56:36.614Z,24.90
2024-01-10T11:57:32.066Z,24.60
2024-01-10T11:58:30.186Z,25.50
2024-01-10T11:59:29.661Z,24.00
2024-01-10T12:00:29.619Z,25.70
2024-01-10T12:01:29.606Z,24.70
2024-01-10T12:02:29.714Z,25.50
2024-01-10T12:03:29.601Z,24.90
2024-01-10T12:04:38.486Z,25.40
2024-01-10T12:05:30.646Z,25.40
2024-01-10T12:06:29.651Z,24.60
2024-01-10T12:07:29.621Z,24.20
2024-01-10T12:08:29.588Z,24.90
2024-01-10T12:09:31.526Z,23.90
2024-01-10T12:10:29.509Z,24.10
2024-01-10T12:11:29.515Z,24.60
2024-01-10T12:12:29.493Z,23.10
2024-01-10T12:13:29.489Z,24.10
2024-01-10T12:14:29.489Z,25.00
2024-01-10T12:15:29.484Z,24.70
2024-01-10T12:16:29.448Z,23.70
2024-01-10T12:17:29.491Z,23.70
2024-01-10T12:18:29.492Z,24.10
2024-01-10T12:19:29.449Z,23.70
2024-01-10T12:20:29.499Z,24.00
2024-01-10T12:21:29.393Z,24.90
2024-01-10T12:22:29.396Z,24.90
2024-01-10T12:23:29.368Z,24.50
2024-01-10T12:24:29.363Z,24.60
2024-01-10T12:25:29.340Z,23.70
2024-01-10T12:26:29.375Z,24.30
2024-01-10T12:27:30.547Z,25.00
2024-01-10T12:28:29.314Z,24.40
2024-01-10T12:29:29.350Z,24.40
2024-01-10T12:30:29.353Z,23.70
2024-01-10T12:31:29.288Z,23.90
2024-01-10T12:32:29.338Z,23.30
2024-01-10T12:33:29.329Z,23.10
2024-01-10T12:34:29.252Z,24.50
2024-01-10T12:35:29.376Z,24.00
2024-01-10T12:36:29.248Z,23.50
2024-01-10T12:37:29.220Z,23.40
2024-01-10T12:38:29.232Z,23.80
2024-01-10T12:39:29.185Z,23.10
2024-01-10T12:40:29.182Z,23.50
2024-01-10T12:41:29.257Z,23.60
2024-01-10T12:42:29.156Z,23.30
2024-01-10T12:43:29.144Z,23.60
2024-01-10T12:44:29.212Z,23.60
2024-01-10T12:45:29.120Z,24.60
2024-01-10T12:46:29.129Z,24.10
2024-01-10T12:47:29.306Z,22.90
2024-01-10T12:48:29.152Z,23.30
2024-01-10T12:49:29.079Z,22.50
2024-01-10T12:50:29.473Z,22.50
2024-01-10T12:51:29.072Z,21.90
2024-01-10T12:52:29.062Z,22.60
2024-01-10T12:53:29.151Z,22.90
2024-01-10T12:54:29.021Z,22.20